Time;durP1;ratioP1;P1;durP2;ratioP2;P2;SDS_P1;SDS_P2;PMS_P1;PMS_P2;Temp;Humidity;BMP_temperature;BMP_pressure;BME280_temperature;BME280_humidity;BME280_pressure;Samples;Min_cycle;Max_cycle;Signal;HPM_P1;HPM_P2
2023/02/22 00:00:18;;;;;;;2.17;1.80;;;5.80;95.00;;;;;;5048304;28;20274;-67
2023/02/22 00:02:45;;;;;;;4.18;2.35;;;5.70;95.70;;;;;;5046464;28;20306;-67
2023/02/22 00:05:15;;;;;;;2.83;1.70;;;5.90;95.80;;;;;;5027080;28;20201;-67
2023/02/22 00:07:44;;;;;;;3.35;2.63;;;5.80;95.40;;;;;;5027279;28;20245;-67
2023/02/22 00:10:12;;;;;;;2.95;2.42;;;5.80;95.40;;;;;;5026557;28;20201;-67
2023/02/22 00:12:40;;;;;;;3.03;2.10;;;5.80;95.80;;;;;;5027263;28;20228;-67
2023/02/22 00:15:08;;;;;;;1.73;1.63;;;5.80;96.70;;;;;;5027006;28;20223;-67
2023/02/22 00:17:35;;;;;;;3.10;2.05;;;5.90;96.70;;;;;;5026495;28;20205;-67
2023/02/22 00:20:05;;;;;;;1.35;1.25;;;5.90;96.40;;;;;;5027087;28;20193;-66
2023/02/22 00:22:32;;;;;;;2.97;2.33;;;5.90;95.90;;;;;;5026593;28;20302;-67
2023/02/22 00:25:00;;;;;;;2.28;2.05;;;5.90;95.80;;;;;;5026992;28;20243;-67
2023/02/22 00:27:27;;;;;;;3.47;2.55;;;5.90;95.80;;;;;;5026687;28;20717;-67
2023/02/22 00:29:55;;;;;;;2.67;2.20;;;5.80;95.80;;;;;;5027319;28;20199;-66
2023/02/22 00:32:22;;;;;;;3.22;2.90;;;5.70;96.60;;;;;;5026631;28;20228;-67
2023/02/22 00:34:52;;;;;;;4.32;1.98;;;5.70;97.10;;;;;;5027156;28;20209;-68
2023/02/22 00:37:19;;;;;;;2.08;1.98;;;5.70;96.90;;;;;;5026394;28;20602;-67
2023/02/22 00:39:47;;;;;;;1.58;1.48;;;5.60;96.50;;;;;;5037561;28;20200;-66
2023/02/22 00:42:15;;;;;;;3.80;2.25;;;5.70;96.40;;;;;;5053374;28;20766;-67
2023/02/22 00:44:41;;;;;;;2.75;2.28;;;5.70;96.30;;;;;;5046738;28;20227;-66
2023/02/22 00:47:08;;;;;;;4.35;2.83;;;5.70;96.30;;;;;;5044913;28;20231;-67
2023/02/22 00:49:35;;;;;;;3.40;2.85;;;5.70;96.30;;;;;;5028270;28;20197;-66
2023/02/22 00:52:03;;;;;;;3.83;1.77;;;5.60;96.40;;;;;;5028659;28;20225;-67
2023/02/22 00:54:30;;;;;;;5.07;2.00;;;5.70;96.40;;;;;;5047150;28;20200;-66
2023/02/22 00:56:57;;;;;;;3.58;1.83;;;5.70;96.40;;;;;;5044017;28;20227;-66
2023/02/22 00:59:26;;;;;;;4.88;2.38;;;5.70;96.30;;;;;;5041635;28;20204;-67
2023/02/22 01:01:53;;;;;;;3.78;1.70;;;5.70;96.30;;;;;;5043526;28;20535;-67
2023/02/22 01:04:19;;;;;;;3.72;2.05;;;5.70;96.30;;;;;;5026542;28;20232;-67
2023/02/22 01:06:46;;;;;;;1.92;1.73;;;5.70;96.20;;;;;;5026868;28;20773;-67
2023/02/22 01:09:13;;;;;;;2.58;2.38;;;5.70;96.10;;;;;;5044619;28;20200;-67
2023/02/22 01:11:40;;;;;;;1.88;1.65;;;5.70;96.20;;;;;;5042331;28;20225;-67
2023/02/22 01:14:08;;;;;;;7.18;1.73;;;5.70;96.20;;;;;;5046008;28;20196;-67
2023/02/22 01:16:36;;;;;;;6.47;2.40;;;5.60;96.10;;;;;;5047939;28;20238;-67
2023/02/22 01:19:05;;;;;;;2.72;1.58;;;5.60;96.00;;;;;;5035714;28;20840;-66
2023/02/22 01:21:31;;;;;;;2.10;1.30;;;5.60;96.00;;;;;;5029860;28;20707;-67
2023/02/22 01:23:58;;;;;;;2.58;2.42;;;5.60;96.10;;;;;;5045847;28;20208;-66
2023/02/22 01:26:25;;;;;;;2.85;2.65;;;5.60;96.20;;;;;;5048753;28;20236;-67
2023/02/22 01:28:52;;;;;;;5.68;3.60;;;5.50;96.30;;;;;;5030030;28;20192;-66
2023/02/22 01:31:18;;;;;;;4.45;1.90;;;5.50;96.40;;;;;;5029730;28;20271;-67
2023/02/22 01:33:47;;;;;;;3.28;2.97;;;5.50;96.70;;;;;;5030132;28;20197;-67
2023/02/22 01:36:13;;;;;;;7.05;3.97;;;5.60;96.60;;;;;;5030076;28;20227;-66
2023/02/22 01:38:40;;;;;;;1.70;1.60;;;5.60;96.80;;;;;;5046258;28;20206;-66
2023/02/22 01:41:07;;;;;;;3.55;3.25;;;5.60;97.20;;;;;;5043043;28;20224;-67
2023/02/22 01:43:34;;;;;;;1.40;1.05;;;5.70;97.30;;;;;;5029842;28;20315;-66
2023/02/22 01:46:02;;;;;;;3.25;2.90;;;5.70;97.20;;;;;;5029324;28;20240;-67
2023/02/22 01:48:40;;;;;;;3.22;2.10;;;5.70;97.10;;;;;;5043236;28;20206;-66
2023/02/22 01:51:12;;;;;;;2.70;2.08;;;5.60;96.70;;;;;;5049835;28;20220;-67
2023/02/22 01:53:44;;;;;;;2.80;2.08;;;5.60;96.80;;;;;;5049574;28;20282;-66
2023/02/22 01:56:12;;;;;;;4.20;1.98;;;5.60;96.90;;;;;;5039088;28;20225;-67
2023/02/22 01:58:44;;;;;;;2.92;2.63;;;5.60;96.80;;;;;;5043271;28;20215;-67
2023/02/22 02:01:11;;;;;;;1.83;1.73;;;5.60;96.80;;;;;;5029474;28;20235;-66
2023/02/22 02:03:40;;;;;;;2.65;1.30;;;5.60;96.80;;;;;;5048344;28;20204;-67
2023/02/22 02:06:11;;;;;;;3.05;2.47;;;5.60;96.80;;;;;;5048256;28;20582;-66
2023/02/22 02:08:48;;;;;;;3.90;2.28;;;5.60;96.90;;;;;;5032724;28;20200;-67
2023/02/22 02:11:18;;;;;;;2.20;2.00;;;5.60;96.80;;;;;;5046138;28;20580;-67
2023/02/22 02:13:45;;;;;;;11.15;2.83;;;5.60;96.90;;;;;;5032663;28;20295;-67
2023/02/22 02:16:13;;;;;;;3.38;2.13;;;5.50;96.90;;;;;;5048276;28;20223;-67
2023/02/22 02:18:41;;;;;;;3.35;3.03;;;5.50;96.90;;;;;;5035452;28;20667;-66
2023/02/22 02:21:39;;;;;;;4.20;2.75;;;5.50;96.90;;;;;;5029267;28;20324;-66
2023/02/22 02:24:49;;;;;;;3.35;2.30;;;5.60;97.20;;;;;;5031120;28;20347;-67
2023/02/22 02:27:19;;;;;;;7.25;2.25;;;5.60;97.40;;;;;;5028808;28;20635;-67
2023/02/22 02:30:22;;;;;;;4.15;2.38;;;5.60;97.50;;;;;;5046432;28;20572;-67
2023/02/22 02:32:57;;;;;;;3.40;2.47;;;5.60;97.40;;;;;;5038569;28;20208;-67
2023/02/22 02:35:37;;;;;;;2.20;2.00;;;5.60;97.40;;;;;;5043941;28;20707;-67
2023/02/22 02:38:13;;;;;;;4.55;3.33;;;5.50;97.40;;;;;;5047915;28;20218;-67
2023/02/22 02:40:48;;;;;;;1.15;1.15;;;5.50;97.50;;;;;;5061436;28;20249;-67
2023/02/22 02:43:23;;;;;;;2.97;2.42;;;5.50;97.70;;;;;;5049911;28;20235;-67
2023/02/22 02:45:57;;;;;;;1.23;1.05;;;5.60;98.00;;;;;;5028698;28;20921;-67
2023/02/22 02:48:28;;;;;;;2.05;1.95;;;5.50;97.90;;;;;;5032236;28;20195;-67
2023/02/22 02:50:58;;;;;;;4.95;3.85;;;5.50;97.90;;;;;;5048590;28;20239;-66
2023/02/22 02:53:32;;;;;;;4.68;2.17;;;5.50;97.70;;;;;;5032329;28;20296;-67
2023/02/22 02:55:59;;;;;;;3.20;1.75;;;5.50;97.60;;;;;;5028495;28;20232;-67
2023/02/22 02:58:28;;;;;;;3.97;2.42;;;5.40;97.60;;;;;;5050186;28;20203;-67
2023/02/22 03:00:59;;;;;;;4.63;3.53;;;5.40;97.70;;;;;;5047759;28;20908;-67
2023/02/22 03:03:52;;;;;;;5.00;3.25;;;5.40;97.60;;;;;;5045730;28;20679;-67
2023/02/22 03:06:52;;;;;;;5.65;2.67;;;5.40;97.70;;;;;;5038564;28;20224;-66
2023/02/22 03:09:33;;;;;;;4.82;2.53;;;5.40;97.70;;;;;;5026087;28;20331;-68
2023/02/22 03:12:08;;;;;;;1.60;1.50;;;5.40;97.60;;;;;;5037470;28;20216;-67
2023/02/22 03:14:40;;;;;;;2.67;2.05;;;5.40;97.70;;;;;;5028262;28;20276;-66
2023/02/22 03:17:17;;;;;;;2.83;1.60;;;5.30;97.60;;;;;;5038681;28;20744;-66
2023/02/22 03:19:51;;;;;;;3.10;1.88;;;5.30;97.80;;;;;;5030863;28;20224;-67
2023/02/22 03:22:24;;;;;;;3.65;1.95;;;5.20;97.70;;;;;;5039932;28;20255;-67
2023/02/22 03:24:58;;;;;;;2.25;2.05;;;5.30;97.90;;;;;;5028335;28;20581;-67
2023/02/22 03:27:31;;;;;;;3.45;3.25;;;5.20;97.80;;;;;;5033976;28;20227;-67
2023/02/22 03:30:02;;;;;;;2.25;2.00;;;5.20;97.70;;;;;;5028028;28;20214;-66
2023/02/22 03:32:36;;;;;;;3.95;2.35;;;5.20;97.70;;;;;;5027452;28;20228;-67
2023/02/22 03:35:09;;;;;;;3.45;2.65;;;5.10;97.70;;;;;;5028037;28;20201;-67
2023/02/22 03:37:40;;;;;;;2.22;2.08;;;5.10;97.60;;;;;;5028407;28;20227;-67
2023/02/22 03:40:13;;;;;;;5.45;2.20;;;5.10;97.40;;;;;;5055730;28;20278;-67
2023/02/22 03:42:46;;;;;;;5.95;3.00;;;5.10;97.50;;;;;;5052512;28;20204;-67
2023/02/22 03:45:15;;;;;;;2.63;2.15;;;5.00;97.50;;;;;;5027597;28;20619;-67
2023/02/22 03:47:49;;;;;;;1.85;1.75;;;5.00;97.50;;;;;;5028989;28;20200;-66
2023/02/22 03:50:24;;;;;;;3.28;2.40;;;5.00;97.40;;;;;;5047407;28;20196;-66
2023/02/22 03:52:53;;;;;;;2.40;1.85;;;5.00;97.60;;;;;;5036223;28;20235;-67
2023/02/22 03:55:22;;;;;;;1.27;1.17;;;4.90;97.60;;;;;;5036787;28;20223;-66
2023/02/22 03:57:52;;;;;;;2.63;1.83;;;4.90;97.70;;;;;;5045968;28;20192;-68
2023/02/22 04:00:22;;;;;;;1.77;1.67;;;4.90;97.70;;;;;;5067075;28;20205;-66
2023/02/22 04:02:50;;;;;;;3.00;2.47;;;4.80;97.70;;;;;;5038279;28;20618;-66
2023/02/22 04:05:19;;;;;;;4.15;1.80;;;4.90;97.90;;;;;;5044782;28;20702;-67
2023/02/22 04:07:48;;;;;;;4.07;2.50;;;4.80;97.90;;;;;;5046328;28;20204;-67
2023/02/22 04:10:16;;;;;;;2.53;1.45;;;4.80;97.80;;;;;;5046824;28;20604;-66
2023/02/22 04:12:43;;;;;;;1.90;1.77;;;4.70;97.70;;;;;;5041298;28;20223;-67
2023/02/22 04:15:14;;;;;;;3.67;2.40;;;4.70;97.80;;;;;;5046698;28;20310;-67
2023/02/22 04:17:41;;;;;;;3.47;2.25;;;4.70;97.90;;;;;;5039690;28;20297;-67
2023/02/22 04:20:09;;;;;;;2.50;1.75;;;4.70;97.90;;;;;;5033665;28;20196;-67
2023/02/22 04:22:37;;;;;;;4.43;2.80;;;4.70;98.00;;;;;;5031247;28;20289;-67
2023/02/22 04:25:04;;;;;;;4.15;1.92;;;4.70;97.90;;;;;;5046897;28;20238;-67
2023/02/22 04:27:31;;;;;;;2.40;1.83;;;4.60;97.70;;;;;;5039118;28;20208;-67
2023/02/22 04:29:57;;;;;;;2.90;2.55;;;4.60;97.70;;;;;;5047081;28;20228;-67
2023/02/22 04:32:24;;;;;;;2.50;1.67;;;4.60;97.70;;;;;;5046523;28;20323;-67
2023/02/22 04:34:51;;;;;;;4.35;2.40;;;4.60;97.70;;;;;;5047293;28;20208;-66
2023/02/22 04:37:18;;;;;;;1.90;1.42;;;4.50;97.70;;;;;;5046427;28;20228;-66
2023/02/22 04:39:46;;;;;;;2.35;2.15;;;4.40;97.70;;;;;;5039119;28;20198;-67
2023/02/22 04:42:13;;;;;;;2.90;1.98;;;4.40;97.80;;;;;;5047671;28;20231;-66
2023/02/22 04:44:40;;;;;;;4.93;2.70;;;4.40;97.80;;;;;;5027178;28;20222;-66
2023/02/22 04:47:06;;;;;;;2.75;2.58;;;4.40;97.80;;;;;;5027004;28;20212;-67
2023/02/22 04:49:33;;;;;;;3.72;2.78;;;4.40;97.80;;;;;;5045381;28;20211;-67
2023/02/22 04:52:00;;;;;;;4.03;3.00;;;4.30;97.90;;;;;;5046645;28;20218;-67
2023/02/22 04:54:27;;;;;;;2.40;2.13;;;4.30;97.80;;;;;;5031396;28;20231;-67
2023/02/22 04:56:56;;;;;;;3.22;2.75;;;4.30;98.00;;;;;;5045980;28;20235;-67
2023/02/22 04:59:23;;;;;;;4.72;1.95;;;4.20;98.00;;;;;;5062921;28;20697;-67
2023/02/22 05:01:50;;;;;;;3.28;1.70;;;4.20;98.10;;;;;;5057333;28;20224;-67
2023/02/22 05:04:17;;;;;;;8.15;2.95;;;4.20;98.00;;;;;;5042126;28;20207;-68
2023/02/22 05:06:43;;;;;;;2.72;2.47;;;4.20;98.00;;;;;;5050093;28;20216;-66
2023/02/22 05:09:10;;;;;;;1.88;1.77;;;4.10;98.00;;;;;;5042230;28;20209;-66
2023/02/22 05:11:37;;;;;;;2.60;2.40;;;4.10;98.10;;;;;;5039609;28;20243;-66
2023/02/22 05:14:05;;;;;;;1.80;1.70;;;4.10;98.20;;;;;;5030492;28;20207;-66
2023/02/22 05:16:32;;;;;;;3.78;2.35;;;4.10;98.20;;;;;;5028969;28;20231;-67
2023/02/22 05:18:59;;;;;;;2.45;2.10;;;4.10;98.20;;;;;;5031385;28;20192;-67
2023/02/22 05:21:26;;;;;;;1.88;1.58;;;4.10;98.20;;;;;;5030163;28;20308;-67
2023/02/22 05:23:52;;;;;;;2.45;2.25;;;4.10;98.20;;;;;;5037214;28;20204;-67
2023/02/22 05:26:19;;;;;;;8.40;2.92;;;4.10;98.30;;;;;;5049665;28;20984;-66
2023/02/22 05:28:46;;;;;;;5.97;4.00;;;4.10;98.40;;;;;;5049810;28;20916;-66
2023/02/22 05:31:14;;;;;;;2.92;1.58;;;4.10;98.50;;;;;;5042542;28;20290;-66
2023/02/22 05:33:41;;;;;;;2.38;2.00;;;4.10;98.50;;;;;;5032314;28;20201;-67
2023/02/22 05:36:08;;;;;;;3.75;1.80;;;4.00;98.50;;;;;;5030074;28;20224;-66
2023/02/22 05:38:41;;;;;;;1.60;1.42;;;4.10;98.60;;;;;;5046498;28;20207;-68
2023/02/22 05:41:09;;;;;;;3.25;3.05;;;4.10;98.60;;;;;;5063750;28;20300;-67
2023/02/22 05:43:36;;;;;;;1.60;1.50;;;4.10;98.70;;;;;;5029432;28;20292;-66
2023/02/22 05:46:03;;;;;;;2.35;2.15;;;4.10;98.80;;;;;;5034221;28;20243;-66
2023/02/22 05:48:31;;;;;;;3.72;2.40;;;4.10;98.70;;;;;;5044324;28;20211;-67
2023/02/22 05:50:58;;;;;;;1.70;1.60;;;4.10;98.70;;;;;;5029277;28;20228;-67
2023/02/22 05:53:25;;;;;;;2.40;1.50;;;4.10;98.70;;;;;;5029690;28;20326;-66
2023/02/22 05:55:52;;;;;;;3.70;3.45;;;4.00;98.70;;;;;;5040719;28;20235;-66
2023/02/22 05:58:19;;;;;;;1.67;1.48;;;4.00;98.70;;;;;;5043097;28;20203;-66
2023/02/22 06:00:46;;;;;;;12.15;2.08;;;4.10;98.80;;;;;;5042170;28;20223;-67
2023/02/22 06:03:12;;;;;;;1.92;1.77;;;4.00;98.80;;;;;;5047560;28;20206;-67
2023/02/22 06:05:40;;;;;;;3.33;2.53;;;4.10;99.00;;;;;;5048982;28;20681;-67
2023/02/22 06:08:08;;;;;;;3.20;2.30;;;4.10;99.10;;;;;;5036875;28;20196;-67
2023/02/22 06:10:35;;;;;;;1.75;1.65;;;4.10;99.00;;;;;;5046281;28;20223;-67
2023/02/22 06:13:04;;;;;;;3.30;3.03;;;4.00;99.00;;;;;;5043326;28;20200;-66
2023/02/22 06:15:30;;;;;;;2.28;1.77;;;4.10;99.00;;;;;;5028113;28;20227;-67
2023/02/22 06:17:59;;;;;;;4.45;3.35;;;4.00;98.90;;;;;;5042799;28;20200;-66
2023/02/22 06:20:28;;;;;;;1.52;1.42;;;4.00;98.90;;;;;;5027878;28;20232;-66
2023/02/22 06:22:57;;;;;;;2.03;1.75;;;4.00;99.00;;;;;;5038226;28;20208;-66
2023/02/22 06:25:26;;;;;;;4.35;3.17;;;4.00;99.00;;;;;;5047602;28;20534;-66
2023/02/22 06:27:53;;;;;;;3.55;1.90;;;4.10;99.10;;;;;;5047054;28;20193;-66
2023/02/22 06:30:22;;;;;;;4.28;2.42;;;4.00;99.10;;;;;;5048424;28;20232;-66
2023/02/22 06:32:49;;;;;;;1.27;1.17;;;4.00;99.10;;;;;;5048336;28;20200;-67
2023/02/22 06:35:17;;;;;;;2.00;1.90;;;4.00;99.10;;;;;;5039889;28;20208;-68
2023/02/22 06:37:43;;;;;;;4.05;2.53;;;4.10;99.20;;;;;;5034948;28;20204;-67
2023/02/22 06:40:12;;;;;;;1.92;1.83;;;4.10;99.30;;;;;;5046835;28;20201;-66
2023/02/22 06:42:40;;;;;;;4.85;1.90;;;4.10;99.60;;;;;;5034913;28;20204;-66
2023/02/22 06:45:07;;;;;;;1.85;1.75;;;4.10;99.30;;;;;;5028439;28;20572;-66
2023/02/22 06:47:39;;;;;;;1.73;1.60;;;4.10;99.30;;;;;;5040682;28;20204;-66
2023/02/22 06:50:06;;;;;;;1.25;1.20;;;4.20;99.40;;;;;;5043385;28;20200;-67
2023/02/22 06:52:33;;;;;;;1.95;1.77;;;4.20;99.30;;;;;;5035082;28;20207;-66
2023/02/22 06:54:59;;;;;;;2.65;2.45;;;4.30;99.30;;;;;;5040242;28;20200;-66
2023/02/22 06:57:28;;;;;;;3.30;2.85;;;4.30;99.80;;;;;;5047090;28;20251;-66
2023/02/22 06:59:54;;;;;;;4.75;3.28;;;4.30;99.40;;;;;;5057576;28;20203;-66
2023/02/22 07:02:21;;;;;;;3.55;2.40;;;4.40;99.50;;;;;;5039378;28;20224;-66
2023/02/22 07:04:48;;;;;;;1.45;1.35;;;4.40;99.60;;;;;;5028169;28;20196;-67
2023/02/22 07:07:15;;;;;;;2.17;1.15;;;4.50;99.70;;;;;;5027812;28;20652;-66
2023/02/22 07:09:41;;;;;;;1.92;1.83;;;4.50;99.80;;;;;;5030493;28;20199;-68
2023/02/22 07:12:09;;;;;;;1.95;1.75;;;4.60;99.90;;;;;;5041353;28;20246;-67
2023/02/22 07:14:37;;;;;;;1.73;1.50;;;4.70;99.90;;;;;;5038917;28;20207;-67
2023/02/22 07:17:04;;;;;;;6.10;3.20;;;4.70;99.90;;;;;;5047293;28;20314;-67
2023/02/22 07:19:30;;;;;;;3.15;1.98;;;4.90;99.90;;;;;;5029696;28;20579;-67
2023/02/22 07:21:58;;;;;;;2.00;1.85;;;5.00;99.90;;;;;;5028862;28;20235;-68
2023/02/22 07:24:27;;;;;;;2.55;1.88;;;5.00;99.90;;;;;;5044821;28;20192;-67
2023/02/22 07:26:54;;;;;;;8.32;2.78;;;5.10;99.90;;;;;;5047365;28;20326;-67
2023/02/22 07:29:21;;;;;;;5.22;4.00;;;5.20;99.90;;;;;;5030397;28;20200;-67
2023/02/22 07:31:49;;;;;;;2.95;2.72;;;5.30;99.90;;;;;;5034957;28;20219;-67
2023/02/22 07:34:16;;;;;;;3.08;2.80;;;5.30;99.80;;;;;;5039708;28;20196;-67
2023/02/22 07:36:43;;;;;;;1.50;1.40;;;5.40;99.70;;;;;;5027649;28;20314;-66
2023/02/22 07:39:10;;;;;;;6.45;4.05;;;5.40;99.50;;;;;;5027698;28;20215;-67
2023/02/22 07:41:37;;;;;;;8.55;2.65;;;5.50;99.40;;;;;;5055288;28;20224;-66
2023/02/22 07:44:04;;;;;;;2.80;2.50;;;5.60;99.40;;;;;;5031886;28;20203;-67
2023/02/22 07:46:30;;;;;;;4.03;3.58;;;5.70;99.50;;;;;;5032007;28;20236;-67
2023/02/22 07:48:59;;;;;;;2.75;2.17;;;5.70;99.30;;;;;;5039967;28;20196;-66
2023/02/22 07:51:25;;;;;;;4.82;2.20;;;5.70;99.30;;;;;;5046835;28;20239;-66
2023/02/22 07:53:52;;;;;;;4.35;2.50;;;5.80;99.30;;;;;;5044600;28;20216;-67
2023/02/22 07:56:19;;;;;;;2.92;2.72;;;5.90;99.20;;;;;;5037781;28;20705;-67
2023/02/22 07:58:46;;;;;;;2.47;2.20;;;5.90;99.20;;;;;;5055633;28;20195;-67
2023/02/22 08:01:13;;;;;;;3.42;3.17;;;6.00;99.40;;;;;;5060738;28;20585;-66
2023/02/22 08:03:39;;;;;;;2.10;2.00;;;6.10;99.50;;;;;;5043413;28;20225;-66
2023/02/22 08:06:08;;;;;;;16.23;3.42;;;6.20;99.80;;;;;;5046789;28;20231;-66
2023/02/22 08:08:35;;;;;;;3.45;1.92;;;6.30;99.70;;;;;;5036657;28;20196;-67
2023/02/22 08:11:02;;;;;;;3.70;3.00;;;6.40;99.70;;;;;;5046239;28;20654;-67
2023/02/22 08:13:29;;;;;;;4.03;3.13;;;6.50;99.50;;;;;;5033681;28;20287;-66
2023/02/22 08:15:56;;;;;;;8.20;4.07;;;6.70;99.90;;;;;;5046691;28;20224;-67
2023/02/22 08:18:24;;;;;;;2.55;2.35;;;6.80;99.50;;;;;;5041033;28;20576;-66
2023/02/22 08:20:53;;;;;;;3.58;3.28;;;6.90;99.40;;;;;;5046477;28;20224;-66
2023/02/22 08:23:24;;;;;;;3.17;2.90;;;7.00;98.80;;;;;;5041138;28;20212;-66
2023/02/22 08:25:51;;;;;;;9.82;3.70;;;7.20;98.60;;;;;;5030966;28;20230;-67
2023/02/22 08:28:22;;;;;;;7.03;2.50;;;7.30;98.40;;;;;;5044244;28;20303;-66
2023/02/22 08:30:49;;;;;;;4.15;1.90;;;7.40;98.00;;;;;;5031085;28;20232;-68
2023/02/22 08:33:18;;;;;;;7.22;4.03;;;7.50;98.20;;;;;;5047085;28;20606;-68
2023/02/22 08:35:47;;;;;;;6.50;3.40;;;7.60;98.20;;;;;;5050386;28;20242;-66
2023/02/22 08:38:19;;;;;;;8.30;4.10;;;7.80;97.80;;;;;;5050184;28;21025;-65
2023/02/22 08:40:48;;;;;;;3.10;2.90;;;7.80;97.80;;;;;;5063067;28;20664;-67
2023/02/22 08:43:15;;;;;;;3.20;2.90;;;7.90;97.60;;;;;;5045572;28;20688;-67
2023/02/22 08:45:44;;;;;;;5.90;2.40;;;8.00;97.10;;;;;;5051036;28;20642;-67
2023/02/22 08:48:11;;;;;;;7.27;3.30;;;8.10;97.00;;;;;;5030537;28;20611;-67
2023/02/22 08:50:40;;;;;;;2.90;2.60;;;8.20;96.70;;;;;;5030754;28;20646;-67
2023/02/22 08:53:07;;;;;;;3.07;2.60;;;8.30;96.50;;;;;;5045425;28;20654;-66
2023/02/22 08:55:36;;;;;;;3.33;3.13;;;8.40;96.30;;;;;;5050547;28;21544;-66
2023/02/22 08:58:08;;;;;;;3.53;2.13;;;8.60;96.30;;;;;;5039103;28;20619;-67
2023/02/22 09:00:35;;;;;;;5.47;3.27;;;8.70;95.70;;;;;;5059752;28;20667;-67
2023/02/22 09:03:03;;;;;;;4.60;2.43;;;8.80;95.20;;;;;;5043453;28;20715;-67
2023/02/22 09:05:30;;;;;;;4.27;3.30;;;8.80;95.40;;;;;;5033042;28;20650;-67
2023/02/22 09:07:56;;;;;;;3.03;2.63;;;8.90;95.30;;;;;;5031483;28;21537;-67
2023/02/22 09:10:26;;;;;;;3.27;2.97;;;9.00;95.40;;;;;;5031701;28;20729;-67
2023/02/22 09:12:54;;;;;;;2.77;2.57;;;9.10;95.00;;;;;;5040824;28;20623;-67
2023/02/22 09:15:23;;;;;;;5.60;3.33;;;9.30;94.80;;;;;;5050158;28;20629;-67
2023/02/22 09:17:50;;;;;;;6.33;2.40;;;9.40;94.40;;;;;;5048195;28;20627;-67
2023/02/22 09:20:18;;;;;;;2.83;2.50;;;9.50;94.30;;;;;;5049000;28;20699;-67
2023/02/22 09:22:45;;;;;;;4.00;3.13;;;9.70;93.90;;;;;;5042593;28;20633;-67
2023/02/22 09:25:12;;;;;;;5.40;3.50;;;9.90;93.10;;;;;;5042156;28;20637;-67
2023/02/22 09:27:40;;;;;;;4.17;3.30;;;9.90;93.20;;;;;;5048044;28;21070;-67
2023/02/22 09:30:10;;;;;;;8.30;2.77;;;10.10;91.90;;;;;;5029637;28;20615;-67
2023/02/22 09:32:38;;;;;;;3.50;1.70;;;10.10;92.20;;;;;;5044356;28;20630;-69
2023/02/22 09:35:07;;;;;;;4.87;2.67;;;10.20;91.80;;;;;;5029620;28;21931;-66
2023/02/22 09:37:34;;;;;;;2.13;1.93;;;10.30;91.20;;;;;;5041782;28;20642;-67
2023/02/22 09:40:01;;;;;;;3.77;2.10;;;10.40;91.40;;;;;;5052344;28;20617;-67
2023/02/22 09:42:33;;;;;;;2.77;2.67;;;10.50;91.10;;;;;;5048811;28;21206;-66
2023/02/22 09:45:11;;;;;;;5.13;2.87;;;10.60;90.40;;;;;;5038556;28;20734;-67
2023/02/22 09:47:45;;;;;;;3.03;2.30;;;10.60;90.80;;;;;;5034412;28;20658;-67
2023/02/22 09:50:15;;;;;;;3.20;2.87;;;10.60;91.40;;;;;;5049061;28;20666;-67
2023/02/22 09:52:53;;;;;;;5.47;4.20;;;10.50;91.00;;;;;;5049594;28;20630;-67
2023/02/22 09:55:29;;;;;;;5.63;3.20;;;10.50;91.30;;;;;;5029536;28;20626;-67
2023/02/22 09:58:00;;;;;;;3.37;3.07;;;10.60;91.50;;;;;;5047636;28;20988;-67
2023/02/22 10:00:32;;;;;;;3.67;3.37;;;10.60;91.70;;;;;;5029467;28;21268;-67
2023/02/22 10:03:16;;;;;;;3.27;2.97;;;10.60;91.40;;;;;;5041804;28;21191;-67
2023/02/22 10:05:46;;;;;;;5.00;3.30;;;10.70;91.80;;;;;;5044364;28;21194;-67
2023/02/22 10:08:15;;;;;;;5.17;3.50;;;10.80;91.60;;;;;;5028322;28;20666;-68
2023/02/22 10:10:44;;;;;;;3.03;2.83;;;10.80;91.10;;;;;;5029317;28;20655;-67
2023/02/22 10:13:19;;;;;;;2.90;2.70;;;10.80;91.30;;;;;;5046046;28;20981;-67
2023/02/22 10:15:54;;;;;;;4.00;2.53;;;10.90;90.90;;;;;;5040448;28;20657;-67
2023/02/22 10:19:10;;;;;;;3.23;2.37;;;11.00;90.50;;;;;;5036369;28;20968;-67
2023/02/22 10:21:56;;;;;;;2.87;2.47;;;11.10;90.40;;;;;;5048589;28;21052;-67
2023/02/22 10:24:37;;;;;;;1.93;1.83;;;11.30;90.20;;;;;;5029552;28;20741;-67
2023/02/22 10:27:06;;;;;;;2.60;2.40;;;11.30;89.00;;;;;;5029743;28;20665;-67
2023/02/22 10:29:38;;;;;;;3.97;3.30;;;11.50;89.10;;;;;;5045078;28;20626;-67
2023/02/22 10:32:07;;;;;;;6.23;2.97;;;11.50;89.70;;;;;;5043165;28;21021;-68
2023/02/22 10:34:41;;;;;;;2.57;2.13;;;11.70;88.90;;;;;;5043417;28;21128;-67
2023/02/22 10:37:20;;;;;;;2.30;2.10;;;11.60;89.70;;;;;;5048130;28;20766;-68
2023/02/22 10:39:51;;;;;;;2.30;2.10;;;11.70;87.90;;;;;;5053756;28;20984;-67
2023/02/22 10:42:22;;;;;;;3.67;2.50;;;11.60;87.30;;;;;;5043276;28;21253;-67
2023/02/22 10:44:49;;;;;;;3.67;2.77;;;11.60;87.50;;;;;;5040523;28;20705;-68
2023/02/22 10:47:17;;;;;;;4.17;2.87;;;11.50;87.10;;;;;;5035972;28;20671;-67
2023/02/22 10:49:49;;;;;;;4.10;2.80;;;11.50;87.20;;;;;;5028018;28;20638;-68
2023/02/22 10:52:22;;;;;;;2.53;2.33;;;11.60;88.30;;;;;;5036054;28;20643;-67
2023/02/22 10:54:51;;;;;;;2.77;2.57;;;11.70;87.80;;;;;;5036963;28;20631;-67
2023/02/22 10:57:22;;;;;;;3.10;2.90;;;11.80;88.20;;;;;;5039838;28;20763;-67
2023/02/22 10:59:50;;;;;;;3.70;2.90;;;11.90;86.40;;;;;;5058923;28;20645;-67
2023/02/22 11:02:20;;;;;;;4.03;3.17;;;11.80;86.90;;;;;;5034982;28;20658;-67
2023/02/22 11:04:50;;;;;;;3.73;2.07;;;11.90;87.30;;;;;;5047258;28;20625;-67
2023/02/22 11:07:24;;;;;;;2.97;2.63;;;12.00;87.80;;;;;;5048010;28;20678;-67
2023/02/22 11:09:53;;;;;;;5.17;2.93;;;12.00;87.70;;;;;;5047810;28;20626;-67
2023/02/22 11:12:26;;;;;;;4.43;3.45;;;12.00;86.90;;;;;;5039374;28;21355;-67
2023/02/22 11:14:53;;;;;;;5.40;3.43;;;12.00;85.50;;;;;;5038365;28;20196;-67
2023/02/22 11:17:29;;;;;;;5.63;3.30;;;12.10;86.50;;;;;;5038190;28;20653;-67
2023/02/22 11:19:58;;;;;;;3.77;3.50;;;12.10;87.20;;;;;;5047282;28;20658;-67
2023/02/22 11:22:29;;;;;;;3.30;3.00;;;12.20;86.70;;;;;;5043178;28;20685;-67
2023/02/22 11:24:59;;;;;;;4.90;3.10;;;12.20;86.70;;;;;;5028232;28;20677;-67
2023/02/22 11:27:37;;;;;;;4.17;3.13;;;12.30;86.30;;;;;;5027592;28;20673;-67
2023/02/22 11:30:25;;;;;;;5.23;2.87;;;12.30;85.70;;;;;;5027066;28;20631;-67
2023/02/22 11:32:56;;;;;;;5.13;4.17;;;12.20;85.70;;;;;;5034933;28;20626;-67
2023/02/22 11:35:51;;;;;;;3.20;2.80;;;12.30;87.40;;;;;;5047713;28;20619;-67
2023/02/22 11:38:21;;;;;;;2.70;2.50;;;12.40;86.70;;;;;;5039030;28;21173;-67
2023/02/22 11:41:13;;;;;;;3.53;3.23;;;12.50;86.10;;;;;;5055277;28;20672;-68
2023/02/22 11:43:40;;;;;;;4.00;3.57;;;12.50;86.60;;;;;;5048783;28;20977;-67
2023/02/22 11:46:11;;;;;;;6.77;4.43;;;12.60;86.50;;;;;;5046714;28;20650;-67
2023/02/22 11:48:43;;;;;;;5.87;2.93;;;12.70;85.40;;;;;;5046331;28;20676;-67
2023/02/22 11:51:20;;;;;;;5.80;3.27;;;12.70;86.80;;;;;;5047580;28;20782;-67
2023/02/22 11:54:36;;;;;;;4.97;4.10;;;12.70;87.00;;;;;;5047935;28;21024;-67
2023/02/22 11:57:16;;;;;;;4.27;3.63;;;12.80;86.50;;;;;;5002550;28;20668;-66
2023/02/22 11:59:56;;;;;;;4.83;3.33;;;12.70;86.40;;;;;;4984695;28;20728;-66
2023/02/22 12:02:35;;;;;;;6.03;3.90;;;12.80;87.40;;;;;;5023758;28;21110;-67
2023/02/22 12:05:24;;;;;;;3.60;3.37;;;12.80;85.70;;;;;;5047352;28;20626;-67
2023/02/22 12:08:04;;;;;;;4.77;3.27;;;12.80;86.10;;;;;;5047345;28;20650;-68
2023/02/22 12:10:46;;;;;;;4.97;3.57;;;12.80;87.10;;;;;;5027605;28;20686;-67
2023/02/22 12:13:31;;;;;;;2.90;2.60;;;12.80;87.80;;;;;;5025470;28;20619;-67
2023/02/22 12:16:05;;;;;;;4.13;3.03;;;12.80;87.00;;;;;;5026638;28;20723;-67
2023/02/22 12:18:38;;;;;;;5.80;4.33;;;12.90;87.40;;;;;;5044759;28;20731;-67
2023/02/22 12:21:12;;;;;;;5.50;4.73;;;13.00;86.80;;;;;;5031071;28;20650;-67
2023/02/22 12:23:45;;;;;;;4.30;3.87;;;13.10;86.70;;;;;;5032862;28;21243;-67
2023/02/22 12:26:18;;;;;;;6.80;3.47;;;13.00;88.20;;;;;;5045243;28;20650;-67
2023/02/22 12:28:51;;;;;;;4.77;3.87;;;13.10;87.80;;;;;;5031029;28;20989;-67
2023/02/22 12:31:22;;;;;;;3.57;3.27;;;13.10;86.20;;;;;;5026948;28;20643;-67
2023/02/22 12:33:55;;;;;;;5.20;3.93;;;13.10;87.40;;;;;;5034589;28;20619;-68
2023/02/22 12:36:31;;;;;;;5.87;3.57;;;13.00;86.40;;;;;;5046608;28;20665;-67
2023/02/22 12:39:04;;;;;;;4.07;3.67;;;13.00;87.70;;;;;;5046588;28;21152;-67
2023/02/22 12:41:37;;;;;;;6.67;4.03;;;13.10;86.60;;;;;;5041279;28;21124;-67
2023/02/22 12:44:08;;;;;;;3.40;3.07;;;13.20;86.30;;;;;;5034533;28;20692;-67
2023/02/22 12:46:38;;;;;;;5.50;3.20;;;13.20;86.30;;;;;;5033385;28;20662;-67
2023/02/22 12:49:16;;;;;;;4.57;3.13;;;13.30;85.80;;;;;;5030672;28;21057;-67
2023/02/22 12:51:48;;;;;;;6.53;3.60;;;13.30;83.90;;;;;;5047161;28;20654;-67
2023/02/22 12:54:25;;;;;;;7.50;5.27;;;13.30;85.90;;;;;;5027764;28;20623;-67
2023/02/22 12:56:57;;;;;;;3.77;3.47;;;13.20;85.10;;;;;;5032783;28;20650;-68
2023/02/22 12:59:31;;;;;;;5.00;2.57;;;13.00;84.40;;;;;;5049758;28;20627;-66
2023/02/22 13:02:01;;;;;;;2.90;2.43;;;13.00;84.60;;;;;;5038213;28;20658;-67
2023/02/22 13:04:30;;;;;;;4.33;3.33;;;13.00;85.70;;;;;;5044940;28;20717;-67
2023/02/22 13:07:13;;;;;;;7.57;3.70;;;13.20;85.70;;;;;;5026919;28;20650;-67
2023/02/22 13:09:58;;;;;;;4.93;3.50;;;13.20;85.30;;;;;;5032000;28;20614;-67
2023/02/22 13:12:36;;;;;;;4.23;3.83;;;13.30;86.10;;;;;;5043153;28;20650;-67